sensor_id;sensor_type;location;lat;lon;timestamp;pressure;altitude;pressure_sealevel;temperature;humidity
18755;BME280;35061;47.664;9.166;2023-04-06T00:02:07;101794.00;;;3.56;58.89
18755;BME280;35061;47.664;9.166;2023-04-06T00:04:35;101789.95;;;3.57;58.63
18755;BME280;35061;47.664;9.166;2023-04-06T00:07:03;101791.65;;;3.51;59.09
18755;BME280;35061;47.664;9.166;2023-04-06T00:09:31;101789.65;;;3.44;59.13
18755;BME280;35061;47.664;9.166;2023-04-06T00:11:59;101788.87;;;3.43;59.34
18755;BME280;35061;47.664;9.166;2023-04-06T00:14:27;101794.10;;;3.45;59.18
18755;BME280;35061;47.664;9.166;2023-04-06T00:16:55;101794.98;;;3.38;59.32
18755;BME280;35061;47.664;9.166;2023-04-06T00:19:24;101789.42;;;3.31;59.56
18755;BME280;35061;47.664;9.166;2023-04-06T00:21:52;101791.38;;;3.34;59.52
18755;BME280;35061;47.664;9.166;2023-04-06T00:24:20;101799.00;;;3.41;59.84
18755;BME280;35061;47.664;9.166;2023-04-06T00:26:48;101794.55;;;3.40;60.00
18755;BME280;35061;47.664;9.166;2023-04-06T00:29:16;101801.42;;;3.42;60.05
18755;BME280;35061;47.664;9.166;2023-04-06T00:31:43;101796.68;;;3.32;60.15
18755;BME280;35061;47.664;9.166;2023-04-06T00:34:12;101793.48;;;3.26;60.13
18755;BME280;35061;47.664;9.166;2023-04-06T00:36:39;101798.77;;;3.24;59.90
18755;BME280;35061;47.664;9.166;2023-04-06T00:39:08;101791.91;;;3.21;59.61
18755;BME280;35061;47.664;9.166;2023-04-06T00:41:36;101793.51;;;3.23;60.07
18755;BME280;35061;47.664;9.166;2023-04-06T00:44:04;101791.55;;;3.19;59.85
18755;BME280;35061;47.664;9.166;2023-04-06T00:46:32;101785.07;;;3.15;59.90
18755;BME280;35061;47.664;9.166;2023-04-06T00:49:00;101790.73;;;3.15;59.92
18755;BME280;35061;47.664;9.166;2023-04-06T00:51:28;101785.53;;;3.10;59.75
18755;BME280;35061;47.664;9.166;2023-04-06T00:53:56;101787.98;;;3.08;59.95
18755;BME280;35061;47.664;9.166;2023-04-06T00:56:24;101782.33;;;3.08;59.85
18755;BME280;35061;47.664;9.166;2023-04-06T00:58:53;101780.70;;;3.07;59.84
18755;BME280;35061;47.664;9.166;2023-04-06T01:01:23;101783.14;;;3.05;59.99
18755;BME280;35061;47.664;9.166;2023-04-06T01:03:51;101776.67;;;3.08;60.33
18755;BME280;35061;47.664;9.166;2023-04-06T01:06:19;101779.02;;;3.13;60.55
18755;BME280;35061;47.664;9.166;2023-04-06T01:08:47;101779.02;;;3.13;60.29
18755;BME280;35061;47.664;9.166;2023-04-06T01:11:17;101770.16;;;3.11;60.21
18755;BME280;35061;47.664;9.166;2023-04-06T01:13:46;101764.15;;;3.05;59.98
18755;BME280;35061;47.664;9.166;2023-04-06T01:16:14;101767.35;;;3.11;60.70
18755;BME280;35061;47.664;9.166;2023-04-06T01:18:42;101760.45;;;3.12;60.13
18755;BME280;35061;47.664;9.166;2023-04-06T01:21:10;101752.83;;;3.05;59.93
18755;BME280;35061;47.664;9.166;2023-04-06T01:23:44;101746.84;;;2.96;60.33
18755;BME280;35061;47.664;9.166;2023-04-06T01:26:13;101756.56;;;2.95;60.68
18755;BME280;35061;47.664;9.166;2023-04-06T01:28:41;101752.18;;;2.87;60.85
18755;BME280;35061;47.664;9.166;2023-04-06T01:31:10;101761.59;;;2.69;60.24
18755;BME280;35061;47.664;9.166;2023-04-06T01:33:38;101761.76;;;2.44;60.52
18755;BME280;35061;47.664;9.166;2023-04-06T01:36:06;101764.27;;;2.34;60.37
18755;BME280;35061;47.664;9.166;2023-04-06T01:38:34;101757.84;;;2.27;60.45
18755;BME280;35061;47.664;9.166;2023-04-06T01:41:03;101755.45;;;2.21;60.21
18755;BME280;35061;47.664;9.166;2023-04-06T01:43:31;101749.79;;;2.18;60.47
18755;BME280;35061;47.664;9.166;2023-04-06T01:45:59;101755.84;;;2.20;60.98
18755;BME280;35061;47.664;9.166;2023-04-06T01:48:27;101751.39;;;2.19;60.66
18755;BME280;35061;47.664;9.166;2023-04-06T01:50:55;101751.78;;;2.25;61.29
18755;BME280;35061;47.664;9.166;2023-04-06T01:53:23;101748.94;;;2.28;61.03
18755;BME280;35061;47.664;9.166;2023-04-06T01:55:52;101740.83;;;2.30;60.95
18755;BME280;35061;47.664;9.166;2023-04-06T01:58:19;101749.76;;;2.25;60.65
18755;BME280;35061;47.664;9.166;2023-04-06T02:00:48;101743.28;;;2.25;60.73
18755;BME280;35061;47.664;9.166;2023-04-06T02:03:16;101750.54;;;2.26;60.52
18755;BME280;35061;47.664;9.166;2023-04-06T02:05:44;101751.36;;;2.30;60.95
18755;BME280;35061;47.664;9.166;2023-04-06T02:08:12;101754.20;;;2.26;60.75
18755;BME280;35061;47.664;9.166;2023-04-06T02:10:39;101745.34;;;2.24;60.92
18755;BME280;35061;47.664;9.166;2023-04-06T02:13:07;101745.34;;;2.24;60.47
18755;BME280;35061;47.664;9.166;2023-04-06T02:15:35;101739.69;;;2.20;60.53
18755;BME280;35061;47.664;9.166;2023-04-06T02:18:03;101746.59;;;2.16;60.76
18755;BME280;35061;47.664;9.166;2023-04-06T02:20:31;101744.59;;;2.13;60.41
18755;BME280;35061;47.664;9.166;2023-04-06T02:22:59;101753.09;;;2.05;60.33
18755;BME280;35061;47.664;9.166;2023-04-06T02:25:28;101747.47;;;1.98;60.49
18755;BME280;35061;47.664;9.166;2023-04-06T02:27:56;101747.86;;;2.00;60.98
18755;BME280;35061;47.664;9.166;2023-04-06T02:30:24;101749.07;;;2.03;61.31
18755;BME280;35061;47.664;9.166;2023-04-06T02:32:52;101745.84;;;2.04;60.73
18755;BME280;35061;47.664;9.166;2023-04-06T02:35:20;101752.27;;;2.01;60.98
18755;BME280;35061;47.664;9.166;2023-04-06T02:37:48;101753.13;;;1.94;60.56
18755;BME280;35061;47.664;9.166;2023-04-06T02:40:16;101749.98;;;1.81;60.81
18755;BME280;35061;47.664;9.166;2023-04-06T02:42:43;101745.57;;;1.66;61.07
18755;BME280;35061;47.664;9.166;2023-04-06T02:45:12;101751.66;;;1.61;60.96
18755;BME280;35061;47.664;9.166;2023-04-06T02:47:40;101754.11;;;1.55;61.06
18755;BME280;35061;47.664;9.166;2023-04-06T02:50:08;101740.38;;;1.57;61.49
18755;BME280;35061;47.664;9.166;2023-04-06T02:52:36;101747.24;;;1.60;61.47
18755;BME280;35061;47.664;9.166;2023-04-06T02:55:05;101746.00;;;1.61;61.42
18755;BME280;35061;47.664;9.166;2023-04-06T02:57:35;101746.00;;;1.61;61.24
18755;BME280;35061;47.664;9.166;2023-04-06T03:00:04;101744.43;;;1.56;61.14
18755;BME280;35061;47.664;9.166;2023-04-06T03:02:32;101743.22;;;1.50;61.25
18755;BME280;35061;47.664;9.166;2023-04-06T03:05:01;101745.24;;;1.46;61.38
18755;BME280;35061;47.664;9.166;2023-04-06T03:07:30;101740.83;;;1.41;61.49
18755;BME280;35061;47.664;9.166;2023-04-06T03:09:58;101749.30;;;1.34;61.47
18755;BME280;35061;47.664;9.166;2023-04-06T03:12:26;101748.09;;;1.31;61.70
18755;BME280;35061;47.664;9.166;2023-04-06T03:14:54;101752.54;;;1.29;62.12
18755;BME280;35061;47.664;9.166;2023-04-06T03:17:22;101744.46;;;1.23;62.65
18755;BME280;35061;47.664;9.166;2023-04-06T03:19:50;101748.91;;;1.24;62.33
18755;BME280;35061;47.664;9.166;2023-04-06T03:22:19;101745.27;;;1.24;63.13
18755;BME280;35061;47.664;9.166;2023-04-06T03:24:48;101741.26;;;1.25;63.29
18755;BME280;35061;47.664;9.166;2023-04-06T03:27:15;101744.85;;;1.25;63.23
18755;BME280;35061;47.664;9.166;2023-04-06T03:29:43;101751.33;;;1.19;63.12
18755;BME280;35061;47.664;9.166;2023-04-06T03:32:11;101744.07;;;1.14;63.30
18755;BME280;35061;47.664;9.166;2023-04-06T03:34:39;101746.09;;;1.10;63.21
18755;BME280;35061;47.664;9.166;2023-04-06T03:37:07;101740.86;;;1.08;63.57
18755;BME280;35061;47.664;9.166;2023-04-06T03:39:36;101753.75;;;1.09;63.29
18755;BME280;35061;47.664;9.166;2023-04-06T03:42:04;101750.15;;;1.13;64.01
18755;BME280;35061;47.664;9.166;2023-04-06T03:44:32;101746.48;;;1.12;63.63
18755;BME280;35061;47.664;9.166;2023-04-06T03:47:00;101742.47;;;1.17;64.57
18755;BME280;35061;47.664;9.166;2023-04-06T03:49:28;101750.54;;;1.15;63.47
18755;BME280;35061;47.664;9.166;2023-04-06T03:51:56;101746.91;;;1.07;63.82
18755;BME280;35061;47.664;9.166;2023-04-06T03:54:24;101759.83;;;1.04;63.82
18755;BME280;35061;47.664;9.166;2023-04-06T03:56:52;101758.20;;;1.00;63.71
18755;BME280;35061;47.664;9.166;2023-04-06T03:59:20;101757.80;;;0.94;64.25
18755;BME280;35061;47.664;9.166;2023-04-06T04:01:48;101756.20;;;0.89;63.82
18755;BME280;35061;47.664;9.166;2023-04-06T04:04:16;101757.41;;;0.88;63.88
18755;BME280;35061;47.664;9.166;2023-04-06T04:06:44;101765.03;;;0.84;64.17
18755;BME280;35061;47.664;9.166;2023-04-06T04:09:12;101761.04;;;0.78;64.51
18755;BME280;35061;47.664;9.166;2023-04-06T04:11:40;101767.48;;;0.75;64.53
18755;BME280;35061;47.664;9.166;2023-04-06T04:14:08;101767.88;;;0.69;64.54
18755;BME280;35061;47.664;9.166;2023-04-06T04:16:36;101761.40;;;0.69;64.52
18755;BME280;35061;47.664;9.166;2023-04-06T04:19:04;101765.03;;;0.66;64.57
18755;BME280;35061;47.664;9.166;2023-04-06T04:21:32;101769.09;;;0.68;64.79
18755;BME280;35061;47.664;9.166;2023-04-06T04:24:00;101767.45;;;0.67;65.67
18755;BME280;35061;47.664;9.166;2023-04-06T04:26:28;101771.50;;;0.66;65.39
18755;BME280;35061;47.664;9.166;2023-04-06T04:28:56;101765.45;;;0.64;65.26
18755;BME280;35061;47.664;9.166;2023-04-06T04:31:24;101771.08;;;0.68;66.06
18755;BME280;35061;47.664;9.166;2023-04-06T04:33:52;101771.08;;;0.75;66.11
18755;BME280;35061;47.664;9.166;2023-04-06T04:36:20;101773.10;;;0.78;66.33
18755;BME280;35061;47.664;9.166;2023-04-06T04:38:48;101772.71;;;0.80;66.63
18755;BME280;35061;47.664;9.166;2023-04-06T04:41:16;101775.91;;;0.82;66.73
18755;BME280;35061;47.664;9.166;2023-04-06T04:43:44;101773.50;;;0.91;67.49
18755;BME280;35061;47.664;9.166;2023-04-06T04:46:12;101781.18;;;1.02;67.59
18755;BME280;35061;47.664;9.166;2023-04-06T04:48:40;101775.10;;;1.10;67.89
18755;BME280;35061;47.664;9.166;2023-04-06T04:51:08;101781.97;;;1.20;68.14
18755;BME280;35061;47.664;9.166;2023-04-06T04:53:36;101785.59;;;1.24;67.93
18755;BME280;35061;47.664;9.166;2023-04-06T04:56:04;101785.20;;;1.30;68.00
18755;BME280;35061;47.664;9.166;2023-04-06T04:58:32;101783.99;;;1.34;68.00
18755;BME280;35061;47.664;9.166;2023-04-06T05:01:00;101787.98;;;1.41;67.92
18755;BME280;35061;47.664;9.166;2023-04-06T05:03:28;101787.59;;;1.46;67.76
18755;BME280;35061;47.664;9.166;2023-04-06T05:05:56;101785.95;;;1.52;67.71
18755;BME280;35061;47.664;9.166;2023-04-06T05:08:24;101793.61;;;1.59;67.81
18755;BME280;35061;47.664;9.166;2023-04-06T05:10:52;101790.37;;;1.60;67.71
18755;BME280;35061;47.664;9.166;2023-04-06T05:13:20;101791.16;;;1.68;67.54
18755;BME280;35061;47.664;9.166;2023-04-06T05:15:48;101801.65;;;1.67;67.35
18755;BME280;35061;47.664;9.166;2023-04-06T05:18:16;101794.39;;;1.70;67.18
18755;BME280;35061;47.664;9.166;2023-04-06T05:20:44;101794.42;;;1.63;67.13
18755;BME280;35061;47.664;9.166;2023-04-06T05:23:12;101797.63;;;1.58;66.97
18755;BME280;35061;47.664;9.166;2023-04-06T05:25:40;101795.63;;;1.51;66.91
18755;BME280;35061;47.664;9.166;2023-04-06T05:28:08;101802.11;;;1.41;66.99
18755;BME280;35061;47.664;9.166;2023-04-06T05:30:36;101807.34;;;1.38;67.11
18755;BME280;35061;47.664;9.166;2023-04-06T05:33:04;101808.16;;;1.32;67.13
18755;BME280;35061;47.664;9.166;2023-04-06T05:35:33;101808.98;;;1.25;67.36
18755;BME280;35061;47.664;9.166;2023-04-06T05:38:01;101813.82;;;1.21;67.37
18755;BME280;35061;47.664;9.166;2023-04-06T05:40:29;101806.98;;;1.15;68.05
18755;BME280;35061;47.664;9.166;2023-04-06T05:42:57;101811.79;;;1.14;69.60
18755;BME280;35061;47.664;9.166;2023-04-06T05:45:25;101813.39;;;1.11;69.29
18755;BME280;35061;47.664;9.166;2023-04-06T05:47:53;101813.00;;;1.13;68.91
18755;BME280;35061;47.664;9.166;2023-04-06T05:50:21;101815.02;;;1.09;68.79
18755;BME280;35061;47.664;9.166;2023-04-06T05:52:50;101822.68;;;1.12;68.89
18755;BME280;35061;47.664;9.166;2023-04-06T05:55:18;101820.26;;;1.14;69.70
18755;BME280;35061;47.664;9.166;2023-04-06T05:57:46;101827.52;;;1.19;70.13
18755;BME280;35061;47.664;9.166;2023-04-06T06:00:14;101823.89;;;1.22;69.70
18755;BME280;35061;47.664;9.166;2023-04-06T06:02:42;101824.28;;;1.31;70.46
18755;BME280;35061;47.664;9.166;2023-04-06T06:05:11;101821.08;;;1.36;69.96
18755;BME280;35061;47.664;9.166;2023-04-06T06:07:39;101830.73;;;1.46;70.15
18755;BME280;35061;47.664;9.166;2023-04-06T06:10:07;101825.10;;;1.50;70.06
18755;BME280;35061;47.664;9.166;2023-04-06T06:12:36;101837.59;;;1.60;69.96
18755;BME280;35061;47.664;9.166;2023-04-06T06:15:04;101832.33;;;1.65;70.05
18755;BME280;35061;47.664;9.166;2023-04-06T06:17:33;101834.35;;;1.72;70.30
18755;BME280;35061;47.664;9.166;2023-04-06T06:20:06;101833.90;;;1.81;69.96
18755;BME280;35061;47.664;9.166;2023-04-06T06:22:34;101839.12;;;1.90;70.05
18755;BME280;35061;47.664;9.166;2023-04-06T06:25:02;101838.70;;;1.95;70.31
18755;BME280;35061;47.664;9.166;2023-04-06T06:27:30;101839.87;;;2.01;72.02
18755;BME280;35061;47.664;9.166;2023-04-06T06:29:58;101835.46;;;2.00;71.93
18755;BME280;35061;47.664;9.166;2023-04-06T06:32:26;101839.87;;;2.05;72.13
18755;BME280;35061;47.664;9.166;2023-04-06T06:34:54;101836.22;;;2.12;72.05
18755;BME280;35061;47.664;9.166;2023-04-06T06:37:22;101840.27;;;2.11;73.28
18755;BME280;35061;47.664;9.166;2023-04-06T06:39:50;101839.48;;;2.10;72.51
18755;BME280;35061;47.664;9.166;2023-04-06T06:42:18;101844.69;;;2.19;71.84
18755;BME280;35061;47.664;9.166;2023-04-06T06:44:47;101845.05;;;2.28;71.82
18755;BME280;35061;47.664;9.166;2023-04-06T06:47:15;101851.91;;;2.34;71.39
18755;BME280;35061;47.664;9.166;2023-04-06T06:49:43;101846.59;;;2.44;71.05
18755;BME280;35061;47.664;9.166;2023-04-06T06:52:11;101847.79;;;2.50;70.78
18755;BME280;35061;47.664;9.166;2023-04-06T06:54:39;101842.89;;;2.58;70.76
18755;BME280;35061;47.664;9.166;2023-04-06T06:57:07;101852.57;;;2.60;71.57
18755;BME280;35061;47.664;9.166;2023-04-06T06:59:35;101846.09;;;2.60;71.63
18755;BME280;35061;47.664;9.166;2023-04-06T07:02:03;101851.32;;;2.69;70.84
18755;BME280;35061;47.664;9.166;2023-04-06T07:04:31;101854.92;;;2.73;70.88
18755;BME280;35061;47.664;9.166;2023-04-06T07:06:59;101854.49;;;2.82;70.25
18755;BME280;35061;47.664;9.166;2023-04-06T07:09:27;101859.70;;;2.90;70.10
18755;BME280;35061;47.664;9.166;2023-04-06T07:11:55;101857.99;;;2.97;70.08
18755;BME280;35061;47.664;9.166;2023-04-06T07:14:24;101866.46;;;3.04;69.76
18755;BME280;35061;47.664;9.166;2023-04-06T07:16:52;101864.44;;;3.08;69.52
18755;BME280;35061;47.664;9.166;2023-04-06T07:19:20;101857.47;;;3.16;69.59
18755;BME280;35061;47.664;9.166;2023-04-06T07:21:48;101872.77;;;3.26;69.31
18755;BME280;35061;47.664;9.166;2023-04-06T07:24:17;101859.76;;;3.32;68.99
18755;BME280;35061;47.664;9.166;2023-04-06T07:26:45;101848.80;;;3.38;68.72
18755;BME280;35061;47.664;9.166;2023-04-06T07:29:13;101861.30;;;3.44;68.53
18755;BME280;35061;47.664;9.166;2023-04-06T07:31:41;101856.75;;;3.54;68.36
18755;BME280;35061;47.664;9.166;2023-04-06T07:34:09;101857.05;;;3.63;68.11
18755;BME280;35061;47.664;9.166;2023-04-06T07:36:37;101862.24;;;3.72;67.94
18755;BME280;35061;47.664;9.166;2023-04-06T07:39:06;101856.46;;;3.83;67.79
18755;BME280;35061;47.664;9.166;2023-04-06T07:41:34;101855.15;;;3.95;67.59
18755;BME280;35061;47.664;9.166;2023-04-06T07:44:03;101855.38;;;4.08;67.37
18755;BME280;35061;47.664;9.166;2023-04-06T07:46:32;101858.48;;;4.21;66.92
18755;BME280;35061;47.664;9.166;2023-04-06T07:49:00;101856.36;;;4.29;66.30
18755;BME280;35061;47.664;9.166;2023-04-06T07:51:29;101848.94;;;4.39;66.04
18755;BME280;35061;47.664;9.166;2023-04-06T07:53:57;101847.20;;;4.49;65.86
18755;BME280;35061;47.664;9.166;2023-04-06T07:56:25;101848.28;;;4.58;65.72
18755;BME280;35061;47.664;9.166;2023-04-06T07:58:53;101843.67;;;4.68;65.40
18755;BME280;35061;47.664;9.166;2023-04-06T08:01:24;101843.97;;;4.78;65.05
18755;BME280;35061;47.664;9.166;2023-04-06T08:03:52;101841.77;;;4.89;64.65
18755;BME280;35061;47.664;9.166;2023-04-06T08:06:22;101853.74;;;5.00;64.37
18755;BME280;35061;47.664;9.166;2023-04-06T08:08:50;101847.17;;;5.07;63.75
18755;BME280;35061;47.664;9.166;2023-04-06T08:11:18;101839.78;;;5.13;63.19
18755;BME280;35061;47.664;9.166;2023-04-06T08:13:46;101841.28;;;5.22;63.00
18755;BME280;35061;47.664;9.166;2023-04-06T08:16:14;101841.94;;;5.29;62.88
18755;BME280;35061;47.664;9.166;2023-04-06T08:18:42;101840.14;;;5.39;62.76
18755;BME280;35061;47.664;9.166;2023-04-06T08:21:10;101840.47;;;5.45;62.00
18755;BME280;35061;47.664;9.166;2023-04-06T08:23:38;101835.46;;;5.53;61.52
18755;BME280;35061;47.664;9.166;2023-04-06T08:26:06;101840.63;;;5.58;60.41
18755;BME280;35061;47.664;9.166;2023-04-06T08:28:35;101833.96;;;5.68;60.00
18755;BME280;35061;47.664;9.166;2023-04-06T08:31:06;101835.79;;;5.79;59.90
18755;BME280;35061;47.664;9.166;2023-04-06T08:33:35;101832.00;;;5.85;60.42
18755;BME280;35061;47.664;9.166;2023-04-06T08:36:11;101838.73;;;5.95;60.48
18755;BME280;35061;47.664;9.166;2023-04-06T08:38:40;101837.88;;;5.98;60.42
18755;BME280;35061;47.664;9.166;2023-04-06T08:41:13;101829.58;;;6.08;60.47
18755;BME280;35061;47.664;9.166;2023-04-06T08:43:47;101837.10;;;6.18;59.59
18755;BME280;35061;47.664;9.166;2023-04-06T08:46:17;101836.15;;;6.25;58.79
18755;BME280;35061;47.664;9.166;2023-04-06T08:48:45;101830.23;;;6.36;58.73
18755;BME280;35061;47.664;9.166;2023-04-06T08:51:17;101829.64;;;6.45;58.56
18755;BME280;35061;47.664;9.166;2023-04-06T08:53:46;101832.23;;;6.55;58.55
18755;BME280;35061;47.664;9.166;2023-04-06T08:56:16;101834.05;;;6.66;58.32
18755;BME280;35061;47.664;9.166;2023-04-06T08:58:45;101835.14;;;6.72;58.05
18755;BME280;35061;47.664;9.166;2023-04-06T09:01:13;101826.41;;;6.79;57.87
18755;BME280;35061;47.664;9.166;2023-04-06T09:03:43;101832.29;;;6.89;57.64
18755;BME280;35061;47.664;9.166;2023-04-06T09:06:13;101825.20;;;6.97;57.85
18755;BME280;35061;47.664;9.166;2023-04-06T09:08:41;101825.03;;;7.04;57.70
18755;BME280;35061;47.664;9.166;2023-04-06T09:11:10;101828.50;;;7.12;57.55
18755;BME280;35061;47.664;9.166;2023-04-06T09:13:55;101821.47;;;7.17;57.28
18755;BME280;35061;47.664;9.166;2023-04-06T09:16:25;101819.31;;;7.21;56.76
18755;BME280;35061;47.664;9.166;2023-04-06T09:18:53;101809.01;;;7.27;56.76
18755;BME280;35061;47.664;9.166;2023-04-06T09:21:21;101818.62;;;7.33;56.41
18755;BME280;35061;47.664;9.166;2023-04-06T09:24:03;101816.83;;;7.39;55.67
18755;BME280;35061;47.664;9.166;2023-04-06T09:26:43;101818.69;;;7.46;54.95
18755;BME280;35061;47.664;9.166;2023-04-06T09:29:22;101816.56;;;7.50;54.84
18755;BME280;35061;47.664;9.166;2023-04-06T09:31:50;101818.85;;;7.56;54.30
18755;BME280;35061;47.664;9.166;2023-04-06T09:34:22;101818.85;;;7.56;54.04
18755;BME280;35061;47.664;9.166;2023-04-06T09:36:51;101818.43;;;7.57;54.01
18755;BME280;35061;47.664;9.166;2023-04-06T09:39:22;101818.43;;;7.57;53.74
18755;BME280;35061;47.664;9.166;2023-04-06T09:41:52;101812.64;;;7.61;53.55
18755;BME280;35061;47.664;9.166;2023-04-06T09:44:20;101810.91;;;7.63;53.41
18755;BME280;35061;47.664;9.166;2023-04-06T09:46:48;101814.14;;;7.65;53.22
18755;BME280;35061;47.664;9.166;2023-04-06T09:49:31;101806.63;;;7.72;53.32
18755;BME280;35061;47.664;9.166;2023-04-06T09:52:06;101801.62;;;7.76;53.43
18755;BME280;35061;47.664;9.166;2023-04-06T09:54:36;101800.15;;;7.84;53.55
18755;BME280;35061;47.664;9.166;2023-04-06T09:57:36;101794.27;;;7.91;53.48
18755;BME280;35061;47.664;9.166;2023-04-06T10:00:06;101789.16;;;7.99;52.36
18755;BME280;35061;47.664;9.166;2023-04-06T10:02:56;101789.29;;;8.08;52.41
18755;BME280;35061;47.664;9.166;2023-04-06T10:05:33;101785.07;;;8.13;50.72
18755;BME280;35061;47.664;9.166;2023-04-06T10:08:06;101781.67;;;8.18;50.91
18755;BME280;35061;47.664;9.166;2023-04-06T10:10:35;101776.31;;;8.20;50.60
18755;BME280;35061;47.664;9.166;2023-04-06T10:13:04;101776.90;;;8.28;50.55
18755;BME280;35061;47.664;9.166;2023-04-06T10:15:33;101777.95;;;8.34;50.46
18755;BME280;35061;47.664;9.166;2023-04-06T10:18:02;101785.83;;;8.43;50.24
18755;BME280;35061;47.664;9.166;2023-04-06T10:26:03;101775.43;;;8.49;49.32
18755;BME280;35061;47.664;9.166;2023-04-06T10:28:35;101774.09;;;8.54;49.69
18755;BME280;35061;47.664;9.166;2023-04-06T10:31:06;101770.33;;;8.57;49.78
18755;BME280;35061;47.664;9.166;2023-04-06T10:33:35;101768.82;;;8.65;49.96
18755;BME280;35061;47.664;9.166;2023-04-06T10:36:26;101765.32;;;8.74;49.76
18755;BME280;35061;47.664;9.166;2023-04-06T10:38:59;101762.58;;;8.84;50.04
18755;BME280;35061;47.664;9.166;2023-04-06T10:41:34;101761.40;;;8.94;49.54
18755;BME280;35061;47.664;9.166;2023-04-06T10:44:02;101761.14;;;9.01;49.51
18755;BME280;35061;47.664;9.166;2023-04-06T10:46:32;101763.79;;;9.08;49.93
18755;BME280;35061;47.664;9.166;2023-04-06T10:49:11;101763.06;;;9.17;49.82
18755;BME280;35061;47.664;9.166;2023-04-06T10:51:42;101747.77;;;9.24;48.96
18755;BME280;35061;47.664;9.166;2023-04-06T10:54:11;101745.44;;;9.32;48.81
18755;BME280;35061;47.664;9.166;2023-04-06T10:56:39;101748.38;;;9.41;48.65
18755;BME280;35061;47.664;9.166;2023-04-06T10:59:07;101745.73;;;9.47;48.79
18755;BME280;35061;47.664;9.166;2023-04-06T11:01:35;101748.81;;;9.53;48.51
18755;BME280;35061;47.664;9.166;2023-04-06T11:04:03;101749.01;;;9.58;48.20
18755;BME280;35061;47.664;9.166;2023-04-06T11:06:32;101734.59;;;9.62;48.09
18755;BME280;35061;47.664;9.166;2023-04-06T11:09:00;101747.83;;;9.69;47.18
18755;BME280;35061;47.664;9.166;2023-04-06T11:11:28;101747.41;;;9.80;46.72
18755;BME280;35061;47.664;9.166;2023-04-06T11:13:58;101735.24;;;9.88;46.80
18755;BME280;35061;47.664;9.166;2023-04-06T11:16:31;101739.23;;;9.91;46.75
18755;BME280;35061;47.664;9.166;2023-04-06T11:19:01;101733.70;;;9.97;46.23
18755;BME280;35061;47.664;9.166;2023-04-06T11:21:40;101733.11;;;10.02;46.46
18755;BME280;35061;47.664;9.166;2023-04-06T11:24:14;101728.21;;;10.12;45.77
18755;BME280;35061;47.664;9.166;2023-04-06T11:26:45;101718.89;;;10.21;45.95
18755;BME280;35061;47.664;9.166;2023-04-06T11:29:15;101725.79;;;10.32;43.06
18755;BME280;35061;47.664;9.166;2023-04-06T11:31:51;101724.38;;;10.37;42.25
18755;BME280;35061;47.664;9.166;2023-04-06T11:34:22;101711.95;;;10.40;38.48
18755;BME280;35061;47.664;9.166;2023-04-06T11:36:58;101707.57;;;10.49;40.11
18755;BME280;35061;47.664;9.166;2023-04-06T11:39:28;101706.37;;;10.59;38.97
18755;BME280;35061;47.664;9.166;2023-04-06T11:42:02;101703.98;;;10.57;38.57
18755;BME280;35061;47.664;9.166;2023-04-06T11:44:38;101703.65;;;10.65;38.80
18755;BME280;35061;47.664;9.166;2023-04-06T11:47:09;101702.24;;;10.69;37.41
18755;BME280;35061;47.664;9.166;2023-04-06T11:49:39;101704.50;;;10.74;36.80
18755;BME280;35061;47.664;9.166;2023-04-06T11:52:24;101701.49;;;10.78;37.06
18755;BME280;35061;47.664;9.166;2023-04-06T11:54:53;101683.96;;;10.85;35.89
18755;BME280;35061;47.664;9.166;2023-04-06T11:57:22;101697.99;;;10.93;36.51
18755;BME280;35061;47.664;9.166;2023-04-06T11:59:53;101682.88;;;11.01;36.54
18755;BME280;35061;47.664;9.166;2023-04-06T12:02:21;101681.31;;;11.10;34.65
18755;BME280;35061;47.664;9.166;2023-04-06T12:04:49;101673.34;;;11.14;36.51
18755;BME280;35061;47.664;9.166;2023-04-06T12:07:17;101681.64;;;11.21;36.59
18755;BME280;35061;47.664;9.166;2023-04-06T12:09:45;101680.37;;;11.31;35.96
18755;BME280;35061;47.664;9.166;2023-04-06T12:12:13;101672.23;;;11.39;35.57
18755;BME280;35061;47.664;9.166;2023-04-06T12:14:41;101669.22;;;11.43;34.63
18755;BME280;35061;47.664;9.166;2023-04-06T12:17:09;101661.73;;;11.45;34.06
18755;BME280;35061;47.664;9.166;2023-04-06T12:19:37;101657.74;;;11.52;33.61
18755;BME280;35061;47.664;9.166;2023-04-06T12:22:05;101654.05;;;11.52;34.39
18755;BME280;35061;47.664;9.166;2023-04-06T12:24:33;101658.52;;;11.53;34.24
18755;BME280;35061;47.664;9.166;2023-04-06T12:27:01;101651.52;;;11.54;34.15
18755;BME280;35061;47.664;9.166;2023-04-06T12:29:36;101651.98;;;11.62;33.78
18755;BME280;35061;47.664;9.166;2023-04-06T12:32:04;101649.40;;;11.73;34.50
18755;BME280;35061;47.664;9.166;2023-04-06T12:34:33;101645.87;;;11.78;34.40
18755;BME280;35061;47.664;9.166;2023-04-06T12:37:02;101640.24;;;11.93;34.67
18755;BME280;35061;47.664;9.166;2023-04-06T12:39:29;101657.61;;;11.99;34.03
18755;BME280;35061;47.664;9.166;2023-04-06T12:41:58;101660.48;;;12.08;33.35
18755;BME280;35061;47.664;9.166;2023-04-06T12:44:26;101644.49;;;12.17;32.35
18755;BME280;35061;47.664;9.166;2023-04-06T12:46:54;101646.23;;;12.23;32.76
18755;BME280;35061;47.664;9.166;2023-04-06T12:49:23;101646.36;;;12.29;32.67
18755;BME280;35061;47.664;9.166;2023-04-06T12:51:51;101636.13;;;12.37;33.01
18755;BME280;35061;47.664;9.166;2023-04-06T12:54:19;101633.09;;;12.41;32.48
18755;BME280;35061;47.664;9.166;2023-04-06T12:56:47;101640.54;;;12.48;32.95
18755;BME280;35061;47.664;9.166;2023-04-06T12:59:16;101628.18;;;12.56;32.78
18755;BME280;35061;47.664;9.166;2023-04-06T13:01:44;101630.27;;;12.56;31.38
18755;BME280;35061;47.664;9.166;2023-04-06T13:04:12;101646.23;;;12.57;31.32
18755;BME280;35061;47.664;9.166;2023-04-06T13:06:40;101637.50;;;12.51;30.82
18755;BME280;35061;47.664;9.166;2023-04-06T13:09:08;101642.80;;;12.44;29.54
18755;BME280;35061;47.664;9.166;2023-04-06T13:11:36;101637.53;;;12.42;30.10
18755;BME280;35061;47.664;9.166;2023-04-06T13:14:04;101635.86;;;12.26;27.09